sensor_id;sensor_type;location;lat;lon;timestamp;P1;durP1;ratioP1;P2;durP2;ratioP2
6414;SDS011;3240;48.790;9.210;2022-10-16T00:02:09;5.50;;;1.80;;
6414;SDS011;3240;48.790;9.210;2022-10-16T00:04:37;3.23;;;1.90;;
6414;SDS011;3240;48.790;9.210;2022-10-16T00:07:05;2.17;;;1.73;;
6414;SDS011;3240;48.790;9.210;2022-10-16T00:09:33;1.83;;;1.60;;
6414;SDS011;3240;48.790;9.210;2022-10-16T00:12:01;2.27;;;1.70;;
6414;SDS011;3240;48.790;9.210;2022-10-16T00:14:29;1.83;;;1.40;;
6414;SDS011;3240;48.790;9.210;2022-10-16T00:16:57;3.70;;;2.17;;
6414;SDS011;3240;48.790;9.210;2022-10-16T00:19:25;4.07;;;2.00;;
6414;SDS011;3240;48.790;9.210;2022-10-16T00:21:53;3.17;;;1.67;;
6414;SDS011;3240;48.790;9.210;2022-10-16T00:24:21;2.80;;;1.83;;
6414;SDS011;3240;48.790;9.210;2022-10-16T00:26:49;2.70;;;2.00;;
6414;SDS011;3240;48.790;9.210;2022-10-16T00:29:17;2.27;;;1.47;;
6414;SDS011;3240;48.790;9.210;2022-10-16T00:31:46;2.97;;;1.60;;
6414;SDS011;3240;48.790;9.210;2022-10-16T00:34:14;3.43;;;2.03;;
6414;SDS011;3240;48.790;9.210;2022-10-16T00:36:42;2.00;;;1.70;;
6414;SDS011;3240;48.790;9.210;2022-10-16T00:39:10;2.60;;;2.00;;
6414;SDS011;3240;48.790;9.210;2022-10-16T00:41:38;2.80;;;1.60;;
6414;SDS011;3240;48.790;9.210;2022-10-16T00:46:40;2.13;;;1.90;;
6414;SDS011;3240;48.790;9.210;2022-10-16T00:49:09;1.80;;;1.23;;
6414;SDS011;3240;48.790;9.210;2022-10-16T00:51:38;3.53;;;1.77;;
6414;SDS011;3240;48.790;9.210;2022-10-16T00:54:07;3.17;;;1.60;;
6414;SDS011;3240;48.790;9.210;2022-10-16T00:56:33;5.43;;;1.93;;
6414;SDS011;3240;48.790;9.210;2022-10-16T00:59:02;1.70;;;1.60;;
6414;SDS011;3240;48.790;9.210;2022-10-16T01:01:29;3.10;;;1.70;;
6414;SDS011;3240;48.790;9.210;2022-10-16T01:03:57;3.53;;;1.67;;
6414;SDS011;3240;48.790;9.210;2022-10-16T01:06:29;3.00;;;1.60;;
6414;SDS011;3240;48.790;9.210;2022-10-16T01:09:11;2.50;;;1.70;;
6414;SDS011;3240;48.790;9.210;2022-10-16T01:11:38;1.87;;;1.40;;
6414;SDS011;3240;48.790;9.210;2022-10-16T01:14:08;4.80;;;1.70;;
6414;SDS011;3240;48.790;9.210;2022-10-16T01:16:35;5.93;;;2.07;;
6414;SDS011;3240;48.790;9.210;2022-10-16T01:19:16;3.53;;;1.50;;
6414;SDS011;3240;48.790;9.210;2022-10-16T01:21:45;1.53;;;1.30;;
6414;SDS011;3240;48.790;9.210;2022-10-16T01:29:17;2.20;;;1.43;;
6414;SDS011;3240;48.790;9.210;2022-10-16T01:31:45;4.40;;;1.83;;
6414;SDS011;3240;48.790;9.210;2022-10-16T01:34:15;3.63;;;1.60;;
6414;SDS011;3240;48.790;9.210;2022-10-16T01:36:45;1.97;;;1.37;;
6414;SDS011;3240;48.790;9.210;2022-10-16T01:39:10;2.40;;;1.40;;
6414;SDS011;3240;48.790;9.210;2022-10-16T01:41:39;1.70;;;1.57;;
6414;SDS011;3240;48.790;9.210;2022-10-16T01:44:08;2.90;;;1.20;;
6414;SDS011;3240;48.790;9.210;2022-10-16T01:46:34;3.20;;;1.33;;
6414;SDS011;3240;48.790;9.210;2022-10-16T01:49:02;3.23;;;1.50;;
6414;SDS011;3240;48.790;9.210;2022-10-16T01:51:30;2.73;;;1.30;;
6414;SDS011;3240;48.790;9.210;2022-10-16T01:53:59;1.90;;;1.70;;
6414;SDS011;3240;48.790;9.210;2022-10-16T01:56:26;1.90;;;1.43;;
6414;SDS011;3240;48.790;9.210;2022-10-16T01:58:56;2.83;;;1.50;;
6414;SDS011;3240;48.790;9.210;2022-10-16T02:01:24;3.90;;;1.60;;
6414;SDS011;3240;48.790;9.210;2022-10-16T02:03:51;2.00;;;1.60;;
6414;SDS011;3240;48.790;9.210;2022-10-16T02:06:19;1.80;;;1.60;;
6414;SDS011;3240;48.790;9.210;2022-10-16T02:08:47;4.20;;;1.90;;
6414;SDS011;3240;48.790;9.210;2022-10-16T02:11:15;3.60;;;1.70;;
6414;SDS011;3240;48.790;9.210;2022-10-16T02:13:46;1.50;;;1.40;;
6414;SDS011;3240;48.790;9.210;2022-10-16T02:16:13;5.10;;;1.83;;
6414;SDS011;3240;48.790;9.210;2022-10-16T02:18:41;5.50;;;2.87;;
6414;SDS011;3240;48.790;9.210;2022-10-16T02:23:47;2.37;;;1.70;;
6414;SDS011;3240;48.790;9.210;2022-10-16T02:26:13;6.40;;;2.27;;
6414;SDS011;3240;48.790;9.210;2022-10-16T02:28:42;3.87;;;1.80;;
6414;SDS011;3240;48.790;9.210;2022-10-16T02:31:10;3.07;;;1.67;;
6414;SDS011;3240;48.790;9.210;2022-10-16T02:33:37;1.63;;;1.40;;
6414;SDS011;3240;48.790;9.210;2022-10-16T02:36:05;3.33;;;1.47;;
6414;SDS011;3240;48.790;9.210;2022-10-16T02:38:33;3.90;;;1.93;;
6414;SDS011;3240;48.790;9.210;2022-10-16T02:41:01;2.77;;;1.77;;
6414;SDS011;3240;48.790;9.210;2022-10-16T02:43:29;5.10;;;1.90;;
6414;SDS011;3240;48.790;9.210;2022-10-16T02:45:57;3.83;;;1.53;;
6414;SDS011;3240;48.790;9.210;2022-10-16T02:48:25;2.87;;;1.67;;
6414;SDS011;3240;48.790;9.210;2022-10-16T02:50:53;5.53;;;2.20;;
6414;SDS011;3240;48.790;9.210;2022-10-16T02:53:21;1.60;;;1.50;;
6414;SDS011;3240;48.790;9.210;2022-10-16T02:55:49;3.90;;;1.53;;
6414;SDS011;3240;48.790;9.210;2022-10-16T02:58:17;2.00;;;1.60;;
6414;SDS011;3240;48.790;9.210;2022-10-16T03:00:45;4.50;;;2.00;;
6414;SDS011;3240;48.790;9.210;2022-10-16T03:03:13;5.07;;;2.10;;
6414;SDS011;3240;48.790;9.210;2022-10-16T03:05:42;1.97;;;1.63;;
6414;SDS011;3240;48.790;9.210;2022-10-16T03:08:09;1.70;;;1.40;;
6414;SDS011;3240;48.790;9.210;2022-10-16T03:10:37;2.10;;;1.57;;
6414;SDS011;3240;48.790;9.210;2022-10-16T03:13:05;4.63;;;2.57;;
6414;SDS011;3240;48.790;9.210;2022-10-16T03:15:34;4.43;;;1.73;;
6414;SDS011;3240;48.790;9.210;2022-10-16T03:18:02;2.77;;;2.10;;
6414;SDS011;3240;48.790;9.210;2022-10-16T03:20:30;2.03;;;1.60;;
6414;SDS011;3240;48.790;9.210;2022-10-16T03:22:58;3.33;;;1.63;;
6414;SDS011;3240;48.790;9.210;2022-10-16T03:25:27;2.70;;;1.60;;
6414;SDS011;3240;48.790;9.210;2022-10-16T03:27:59;5.67;;;1.90;;
6414;SDS011;3240;48.790;9.210;2022-10-16T03:30:28;5.80;;;2.60;;
6414;SDS011;3240;48.790;9.210;2022-10-16T03:32:56;4.00;;;1.87;;
6414;SDS011;3240;48.790;9.210;2022-10-16T03:35:24;2.10;;;1.67;;
6414;SDS011;3240;48.790;9.210;2022-10-16T03:37:53;2.03;;;1.50;;
6414;SDS011;3240;48.790;9.210;2022-10-16T03:40:21;3.13;;;1.90;;
6414;SDS011;3240;48.790;9.210;2022-10-16T03:42:49;3.03;;;1.50;;
6414;SDS011;3240;48.790;9.210;2022-10-16T03:45:17;4.47;;;1.57;;
6414;SDS011;3240;48.790;9.210;2022-10-16T03:47:47;2.20;;;2.00;;
6414;SDS011;3240;48.790;9.210;2022-10-16T03:50:17;2.93;;;1.80;;
6414;SDS011;3240;48.790;9.210;2022-10-16T03:52:45;3.80;;;2.33;;
6414;SDS011;3240;48.790;9.210;2022-10-16T03:55:13;2.90;;;1.70;;
6414;SDS011;3240;48.790;9.210;2022-10-16T03:57:41;4.57;;;2.10;;
6414;SDS011;3240;48.790;9.210;2022-10-16T04:00:09;2.43;;;2.10;;
6414;SDS011;3240;48.790;9.210;2022-10-16T04:02:38;7.03;;;2.10;;
6414;SDS011;3240;48.790;9.210;2022-10-16T04:05:06;4.73;;;2.20;;
6414;SDS011;3240;48.790;9.210;2022-10-16T04:07:34;3.73;;;2.03;;
6414;SDS011;3240;48.790;9.210;2022-10-16T04:10:02;4.90;;;2.20;;
6414;SDS011;3240;48.790;9.210;2022-10-16T04:12:30;7.33;;;2.13;;
6414;SDS011;3240;48.790;9.210;2022-10-16T04:14:58;3.10;;;2.20;;
6414;SDS011;3240;48.790;9.210;2022-10-16T04:17:26;4.10;;;2.17;;
6414;SDS011;3240;48.790;9.210;2022-10-16T04:19:54;4.20;;;1.90;;
6414;SDS011;3240;48.790;9.210;2022-10-16T04:22:23;2.97;;;2.20;;
6414;SDS011;3240;48.790;9.210;2022-10-16T04:24:51;3.70;;;2.17;;
6414;SDS011;3240;48.790;9.210;2022-10-16T04:27:19;1.80;;;1.70;;
6414;SDS011;3240;48.790;9.210;2022-10-16T04:29:48;3.30;;;2.07;;
6414;SDS011;3240;48.790;9.210;2022-10-16T04:32:16;6.70;;;2.20;;
6414;SDS011;3240;48.790;9.210;2022-10-16T04:34:44;8.87;;;3.00;;
6414;SDS011;3240;48.790;9.210;2022-10-16T04:37:13;6.00;;;2.13;;
6414;SDS011;3240;48.790;9.210;2022-10-16T04:39:41;4.03;;;2.70;;
6414;SDS011;3240;48.790;9.210;2022-10-16T04:42:09;5.10;;;2.93;;
6414;SDS011;3240;48.790;9.210;2022-10-16T04:44:38;10.40;;;2.53;;
6414;SDS011;3240;48.790;9.210;2022-10-16T04:47:06;2.30;;;1.93;;
6414;SDS011;3240;48.790;9.210;2022-10-16T04:49:34;3.50;;;2.20;;
6414;SDS011;3240;48.790;9.210;2022-10-16T04:52:03;2.20;;;1.90;;
6414;SDS011;3240;48.790;9.210;2022-10-16T04:54:31;4.10;;;2.10;;
6414;SDS011;3240;48.790;9.210;2022-10-16T04:56:59;3.70;;;1.80;;
6414;SDS011;3240;48.790;9.210;2022-10-16T04:59:28;6.57;;;1.90;;
6414;SDS011;3240;48.790;9.210;2022-10-16T05:01:56;3.80;;;2.53;;
6414;SDS011;3240;48.790;9.210;2022-10-16T05:04:24;2.67;;;1.70;;
6414;SDS011;3240;48.790;9.210;2022-10-16T05:06:53;7.23;;;2.57;;
6414;SDS011;3240;48.790;9.210;2022-10-16T05:09:21;3.97;;;2.40;;
6414;SDS011;3240;48.790;9.210;2022-10-16T05:11:49;9.60;;;2.17;;
6414;SDS011;3240;48.790;9.210;2022-10-16T05:14:18;2.67;;;2.00;;
6414;SDS011;3240;48.790;9.210;2022-10-16T05:16:46;3.73;;;2.07;;
6414;SDS011;3240;48.790;9.210;2022-10-16T05:19:14;5.20;;;2.60;;
6414;SDS011;3240;48.790;9.210;2022-10-16T05:21:43;3.57;;;2.07;;
6414;SDS011;3240;48.790;9.210;2022-10-16T05:24:11;5.40;;;2.37;;
6414;SDS011;3240;48.790;9.210;2022-10-16T05:26:39;4.13;;;2.23;;
6414;SDS011;3240;48.790;9.210;2022-10-16T05:29:08;3.47;;;2.40;;
6414;SDS011;3240;48.790;9.210;2022-10-16T05:31:36;4.20;;;2.67;;
6414;SDS011;3240;48.790;9.210;2022-10-16T05:34:04;9.23;;;3.37;;
6414;SDS011;3240;48.790;9.210;2022-10-16T05:36:33;6.23;;;3.10;;
6414;SDS011;3240;48.790;9.210;2022-10-16T05:39:01;4.30;;;2.53;;
6414;SDS011;3240;48.790;9.210;2022-10-16T05:41:29;5.70;;;2.53;;
6414;SDS011;3240;48.790;9.210;2022-10-16T05:43:58;5.73;;;2.50;;
6414;SDS011;3240;48.790;9.210;2022-10-16T05:46:26;5.90;;;2.23;;
6414;SDS011;3240;48.790;9.210;2022-10-16T05:48:54;4.60;;;2.63;;
6414;SDS011;3240;48.790;9.210;2022-10-16T05:51:23;4.03;;;2.50;;
6414;SDS011;3240;48.790;9.210;2022-10-16T05:53:51;5.43;;;2.60;;
6414;SDS011;3240;48.790;9.210;2022-10-16T05:56:19;5.70;;;2.40;;
6414;SDS011;3240;48.790;9.210;2022-10-16T05:58:48;3.50;;;1.73;;
6414;SDS011;3240;48.790;9.210;2022-10-16T06:01:17;4.17;;;2.30;;
6414;SDS011;3240;48.790;9.210;2022-10-16T06:03:44;3.97;;;2.10;;
6414;SDS011;3240;48.790;9.210;2022-10-16T06:06:14;3.50;;;2.03;;
6414;SDS011;3240;48.790;9.210;2022-10-16T06:08:41;5.63;;;3.13;;
6414;SDS011;3240;48.790;9.210;2022-10-16T06:11:10;7.67;;;2.40;;
6414;SDS011;3240;48.790;9.210;2022-10-16T06:13:38;4.77;;;2.47;;
6414;SDS011;3240;48.790;9.210;2022-10-16T06:16:06;4.23;;;2.07;;
6414;SDS011;3240;48.790;9.210;2022-10-16T06:18:34;4.30;;;2.67;;
6414;SDS011;3240;48.790;9.210;2022-10-16T06:21:08;3.87;;;2.33;;
6414;SDS011;3240;48.790;9.210;2022-10-16T06:23:36;5.27;;;1.90;;
6414;SDS011;3240;48.790;9.210;2022-10-16T06:26:05;9.77;;;2.53;;
6414;SDS011;3240;48.790;9.210;2022-10-16T06:28:33;4.30;;;2.73;;
6414;SDS011;3240;48.790;9.210;2022-10-16T06:31:01;4.03;;;2.20;;
6414;SDS011;3240;48.790;9.210;2022-10-16T06:33:29;5.80;;;2.43;;
6414;SDS011;3240;48.790;9.210;2022-10-16T06:36:03;4.90;;;1.90;;
6414;SDS011;3240;48.790;9.210;2022-10-16T06:38:31;5.23;;;2.60;;
6414;SDS011;3240;48.790;9.210;2022-10-16T06:40:59;4.37;;;2.30;;
6414;SDS011;3240;48.790;9.210;2022-10-16T06:43:29;4.37;;;2.23;;
6414;SDS011;3240;48.790;9.210;2022-10-16T06:45:57;4.97;;;2.80;;
6414;SDS011;3240;48.790;9.210;2022-10-16T06:48:25;4.20;;;2.30;;
6414;SDS011;3240;48.790;9.210;2022-10-16T06:50:59;10.00;;;2.40;;
6414;SDS011;3240;48.790;9.210;2022-10-16T06:53:27;3.20;;;2.00;;
6414;SDS011;3240;48.790;9.210;2022-10-16T06:55:55;4.95;;;2.30;;
6414;SDS011;3240;48.790;9.210;2022-10-16T06:58:23;3.30;;;2.03;;
6414;SDS011;3240;48.790;9.210;2022-10-16T07:00:55;3.37;;;2.33;;
6414;SDS011;3240;48.790;9.210;2022-10-16T07:03:21;7.53;;;2.60;;
6414;SDS011;3240;48.790;9.210;2022-10-16T07:05:49;3.90;;;2.20;;
6414;SDS011;3240;48.790;9.210;2022-10-16T07:08:18;10.40;;;2.73;;
6414;SDS011;3240;48.790;9.210;2022-10-16T07:10:46;3.07;;;2.10;;
6414;SDS011;3240;48.790;9.210;2022-10-16T07:13:14;3.07;;;2.63;;
6414;SDS011;3240;48.790;9.210;2022-10-16T07:15:43;4.23;;;2.23;;
6414;SDS011;3240;48.790;9.210;2022-10-16T07:18:11;10.13;;;3.23;;
6414;SDS011;3240;48.790;9.210;2022-10-16T07:20:39;3.20;;;2.03;;
6414;SDS011;3240;48.790;9.210;2022-10-16T07:23:07;6.37;;;2.30;;
6414;SDS011;3240;48.790;9.210;2022-10-16T07:25:36;3.37;;;1.83;;
6414;SDS011;3240;48.790;9.210;2022-10-16T07:28:04;7.00;;;2.40;;
6414;SDS011;3240;48.790;9.210;2022-10-16T07:30:34;2.77;;;1.80;;
6414;SDS011;3240;48.790;9.210;2022-10-16T07:33:01;5.10;;;1.80;;
6414;SDS011;3240;48.790;9.210;2022-10-16T07:35:29;3.30;;;1.90;;
6414;SDS011;3240;48.790;9.210;2022-10-16T07:37:57;2.00;;;1.70;;
6414;SDS011;3240;48.790;9.210;2022-10-16T07:40:25;3.80;;;2.00;;
6414;SDS011;3240;48.790;9.210;2022-10-16T07:42:53;3.80;;;1.77;;
6414;SDS011;3240;48.790;9.210;2022-10-16T07:45:21;4.87;;;2.10;;
6414;SDS011;3240;48.790;9.210;2022-10-16T07:47:49;4.43;;;2.40;;
6414;SDS011;3240;48.790;9.210;2022-10-16T07:50:17;3.70;;;2.10;;
6414;SDS011;3240;48.790;9.210;2022-10-16T07:52:45;4.23;;;2.40;;
6414;SDS011;3240;48.790;9.210;2022-10-16T07:55:13;3.60;;;2.30;;
6414;SDS011;3240;48.790;9.210;2022-10-16T07:57:41;5.73;;;2.87;;
6414;SDS011;3240;48.790;9.210;2022-10-16T08:00:10;3.00;;;2.00;;
6414;SDS011;3240;48.790;9.210;2022-10-16T08:02:40;5.40;;;1.97;;
6414;SDS011;3240;48.790;9.210;2022-10-16T08:05:08;3.53;;;2.03;;
6414;SDS011;3240;48.790;9.210;2022-10-16T08:07:36;3.20;;;1.90;;
6414;SDS011;3240;48.790;9.210;2022-10-16T08:10:04;4.57;;;1.80;;
6414;SDS011;3240;48.790;9.210;2022-10-16T08:12:32;2.00;;;1.73;;
6414;SDS011;3240;48.790;9.210;2022-10-16T08:15:00;2.03;;;1.83;;
6414;SDS011;3240;48.790;9.210;2022-10-16T08:17:30;2.93;;;1.77;;
6414;SDS011;3240;48.790;9.210;2022-10-16T08:19:58;5.90;;;2.07;;
6414;SDS011;3240;48.790;9.210;2022-10-16T08:22:27;3.67;;;1.80;;
6414;SDS011;3240;48.790;9.210;2022-10-16T08:24:56;2.50;;;1.80;;
6414;SDS011;3240;48.790;9.210;2022-10-16T08:27:24;5.23;;;1.80;;
6414;SDS011;3240;48.790;9.210;2022-10-16T08:29:52;7.70;;;1.97;;
6414;SDS011;3240;48.790;9.210;2022-10-16T08:32:20;3.90;;;1.70;;
6414;SDS011;3240;48.790;9.210;2022-10-16T08:34:48;5.60;;;1.80;;
6414;SDS011;3240;48.790;9.210;2022-10-16T08:37:17;4.43;;;1.53;;
6414;SDS011;3240;48.790;9.210;2022-10-16T08:39:45;3.63;;;1.30;;
6414;SDS011;3240;48.790;9.210;2022-10-16T08:45:04;2.00;;;1.63;;
6414;SDS011;3240;48.790;9.210;2022-10-16T08:50:17;1.80;;;1.70;;
6414;SDS011;3240;48.790;9.210;2022-10-16T08:52:43;3.57;;;1.97;;
6414;SDS011;3240;48.790;9.210;2022-10-16T08:55:17;5.33;;;1.80;;
6414;SDS011;3240;48.790;9.210;2022-10-16T08:57:38;2.87;;;1.60;;
6414;SDS011;3240;48.790;9.210;2022-10-16T09:00:12;2.67;;;1.80;;
6414;SDS011;3240;48.790;9.210;2022-10-16T09:02:37;2.53;;;1.80;;
6414;SDS011;3240;48.790;9.210;2022-10-16T09:07:43;3.13;;;2.07;;
6414;SDS011;3240;48.790;9.210;2022-10-16T09:10:11;7.23;;;2.13;;
6414;SDS011;3240;48.790;9.210;2022-10-16T09:12:39;10.00;;;1.93;;
6414;SDS011;3240;48.790;9.210;2022-10-16T09:15:12;2.47;;;1.70;;
6414;SDS011;3240;48.790;9.210;2022-10-16T09:18:11;5.30;;;1.90;;
6414;SDS011;3240;48.790;9.210;2022-10-16T09:20:40;4.10;;;1.90;;
6414;SDS011;3240;48.790;9.210;2022-10-16T09:23:10;6.23;;;1.90;;
6414;SDS011;3240;48.790;9.210;2022-10-16T09:25:36;4.87;;;1.77;;
6414;SDS011;3240;48.790;9.210;2022-10-16T09:28:04;3.90;;;1.83;;
6414;SDS011;3240;48.790;9.210;2022-10-16T09:30:32;2.27;;;1.57;;
6414;SDS011;3240;48.790;9.210;2022-10-16T09:33:00;3.37;;;2.10;;
6414;SDS011;3240;48.790;9.210;2022-10-16T09:35:33;1.63;;;1.53;;
6414;SDS011;3240;48.790;9.210;2022-10-16T09:37:59;1.87;;;1.67;;
6414;SDS011;3240;48.790;9.210;2022-10-16T09:40:31;2.90;;;1.73;;
6414;SDS011;3240;48.790;9.210;2022-10-16T09:45:36;5.83;;;1.90;;
6414;SDS011;3240;48.790;9.210;2022-10-16T09:48:11;5.97;;;2.20;;
6414;SDS011;3240;48.790;9.210;2022-10-16T09:50:42;5.67;;;2.63;;
6414;SDS011;3240;48.790;9.210;2022-10-16T09:53:10;7.83;;;1.43;;
6414;SDS011;3240;48.790;9.210;2022-10-16T09:55:53;5.10;;;1.53;;
6414;SDS011;3240;48.790;9.210;2022-10-16T09:58:22;3.97;;;1.83;;
6414;SDS011;3240;48.790;9.210;2022-10-16T10:00:52;2.00;;;1.60;;
6414;SDS011;3240;48.790;9.210;2022-10-16T10:03:50;4.50;;;1.83;;
6414;SDS011;3240;48.790;9.210;2022-10-16T10:06:06;2.00;;;1.33;;
6414;SDS011;3240;48.790;9.210;2022-10-16T10:08:32;1.90;;;1.50;;
6414;SDS011;3240;48.790;9.210;2022-10-16T10:11:00;4.10;;;0.90;;
6414;SDS011;3240;48.790;9.210;2022-10-16T10:13:28;2.63;;;1.50;;
6414;SDS011;3240;48.790;9.210;2022-10-16T10:15:57;1.70;;;1.60;;
6414;SDS011;3240;48.790;9.210;2022-10-16T10:18:25;2.13;;;1.60;;
6414;SDS011;3240;48.790;9.210;2022-10-16T10:20:57;12.90;;;2.00;;
6414;SDS011;3240;48.790;9.210;2022-10-16T10:23:25;10.10;;;1.73;;
6414;SDS011;3240;48.790;9.210;2022-10-16T10:25:57;6.70;;;1.60;;
6414;SDS011;3240;48.790;9.210;2022-10-16T10:28:29;5.93;;;1.70;;
6414;SDS011;3240;48.790;9.210;2022-10-16T10:31:03;2.20;;;1.77;;
6414;SDS011;3240;48.790;9.210;2022-10-16T10:33:39;1.87;;;1.50;;
6414;SDS011;3240;48.790;9.210;2022-10-16T10:36:14;4.80;;;2.37;;
6414;SDS011;3240;48.790;9.210;2022-10-16T10:38:43;3.33;;;1.70;;
6414;SDS011;3240;48.790;9.210;2022-10-16T10:41:21;7.30;;;1.57;;
6414;SDS011;3240;48.790;9.210;2022-10-16T10:43:48;2.43;;;1.50;;
6414;SDS011;3240;48.790;9.210;2022-10-16T10:46:16;1.53;;;1.30;;
6414;SDS011;3240;48.790;9.210;2022-10-16T10:48:47;1.80;;;1.70;;
6414;SDS011;3240;48.790;9.210;2022-10-16T10:51:20;5.73;;;2.00;;
6414;SDS011;3240;48.790;9.210;2022-10-16T10:53:56;2.67;;;1.60;;
6414;SDS011;3240;48.790;9.210;2022-10-16T10:59:07;2.50;;;1.43;;
6414;SDS011;3240;48.790;9.210;2022-10-16T11:01:36;2.50;;;1.30;;
6414;SDS011;3240;48.790;9.210;2022-10-16T11:04:09;4.43;;;1.60;;
6414;SDS011;3240;48.790;9.210;2022-10-16T11:06:34;8.00;;;1.57;;
6414;SDS011;3240;48.790;9.210;2022-10-16T11:09:38;4.13;;;1.60;;
6414;SDS011;3240;48.790;9.210;2022-10-16T11:11:50;4.07;;;1.63;;
6414;SDS011;3240;48.790;9.210;2022-10-16T11:14:20;5.90;;;1.40;;
6414;SDS011;3240;48.790;9.210;2022-10-16T11:16:52;2.40;;;1.40;;
6414;SDS011;3240;48.790;9.210;2022-10-16T11:19:31;2.20;;;1.53;;
6414;SDS011;3240;48.790;9.210;2022-10-16T11:21:59;2.90;;;1.50;;
6414;SDS011;3240;48.790;9.210;2022-10-16T11:24:30;1.40;;;1.23;;
6414;SDS011;3240;48.790;9.210;2022-10-16T11:26:52;2.10;;;1.90;;
6414;SDS011;3240;48.790;9.210;2022-10-16T11:29:23;1.67;;;1.47;;
6414;SDS011;3240;48.790;9.210;2022-10-16T11:31:52;2.83;;;1.70;;
6414;SDS011;3240;48.790;9.210;2022-10-16T11:34:23;6.53;;;1.67;;
6414;SDS011;3240;48.790;9.210;2022-10-16T11:36:53;3.73;;;1.60;;
6414;SDS011;3240;48.790;9.210;2022-10-16T11:39:21;2.00;;;1.30;;
6414;SDS011;3240;48.790;9.210;2022-10-16T11:41:51;3.73;;;1.30;;
6414;SDS011;3240;48.790;9.210;2022-10-16T11:45:31;3.12;;;1.70;;
6414;SDS011;3240;48.790;9.210;2022-10-16T11:49:51;2.10;;;1.33;;
6414;SDS011;3240;48.790;9.210;2022-10-16T11:52:22;6.63;;;1.77;;
6414;SDS011;3240;48.790;9.210;2022-10-16T11:54:51;4.50;;;1.40;;
6414;SDS011;3240;48.790;9.210;2022-10-16T11:57:20;1.57;;;1.20;;
6414;SDS011;3240;48.790;9.210;2022-10-16T11:59:48;1.30;;;1.03;;
6414;SDS011;3240;48.790;9.210;2022-10-16T12:02:25;2.20;;;1.10;;
6414;SDS011;3240;48.790;9.210;2022-10-16T12:04:49;1.93;;;1.40;;
6414;SDS011;3240;48.790;9.210;2022-10-16T12:07:19;4.47;;;1.70;;
6414;SDS011;3240;48.790;9.210;2022-10-16T12:09:45;1.87;;;1.37;;
6414;SDS011;3240;48.790;9.210;2022-10-16T12:14:59;3.10;;;1.20;;
6414;SDS011;3240;48.790;9.210;2022-10-16T12:17:24;1.83;;;1.40;;
6414;SDS011;3240;48.790;9.210;2022-10-16T12:22:25;1.73;;;1.23;;
6414;SDS011;3240;48.790;9.210;2022-10-16T12:24:53;3.10;;;1.40;;
6414;SDS011;3240;48.790;9.210;2022-10-16T12:27:28;5.67;;;1.30;;
6414;SDS011;3240;48.790;9.210;2022-10-16T12:29:57;3.40;;;1.10;;
6414;SDS011;3240;48.790;9.210;2022-10-16T12:32:28;2.00;;;0.90;;
6414;SDS011;3240;48.790;9.210;2022-10-16T12:34:55;3.13;;;1.23;;
6414;SDS011;3240;48.790;9.210;2022-10-16T12:37:24;3.30;;;1.30;;
6414;SDS011;3240;48.790;9.210;2022-10-16T12:39:52;2.87;;;1.53;;
6414;SDS011;3240;48.790;9.210;2022-10-16T12:42:35;1.60;;;1.30;;
6414;SDS011;3240;48.790;9.210;2022-10-16T12:45:21;1.47;;;1.00;;
6414;SDS011;3240;48.790;9.210;2022-10-16T12:47:36;1.23;;;1.10;;
6414;SDS011;3240;48.790;9.210;2022-10-16T12:50:04;1.93;;;1.03;;
6414;SDS011;3240;48.790;9.210;2022-10-16T12:52:37;1.90;;;1.17;;
6414;SDS011;3240;48.790;9.210;2022-10-16T12:55:05;2.80;;;1.27;;
6414;SDS011;3240;48.790;9.210;2022-10-16T12:57:40;2.00;;;1.13;;
6414;SDS011;3240;48.790;9.210;2022-10-16T13:00:21;3.47;;;1.53;;
6414;SDS011;3240;48.790;9.210;2022-10-16T13:02:54;1.83;;;1.20;;
6414;SDS011;3240;48.790;9.210;2022-10-16T13:08:07;1.93;;;1.20;;
6414;SDS011;3240;48.790;9.210;2022-10-16T13:10:34;1.33;;;1.23;;
6414;SDS011;3240;48.790;9.210;2022-10-16T13:13:10;3.83;;;1.50;;
6414;SDS011;3240;48.790;9.210;2022-10-16T13:15:38;1.20;;;1.10;;
6414;SDS011;3240;48.790;9.210;2022-10-16T13:23:27;1.67;;;1.20;;
6414;SDS011;3240;48.790;9.210;2022-10-16T13:26:03;2.90;;;1.70;;
6414;SDS011;3240;48.790;9.210;2022-10-16T13:28:28;2.13;;;1.30;;
6414;SDS011;3240;48.790;9.210;2022-10-16T13:30:57;2.07;;;1.20;;
6414;SDS011;3240;48.790;9.210;2022-10-16T13:33:33;2.30;;;1.23;;
6414;SDS011;3240;48.790;9.210;2022-10-16T13:36:01;4.63;;;1.53;;
6414;SDS011;3240;48.790;9.210;2022-10-16T13:38:31;2.10;;;1.10;;
6414;SDS011;3240;48.790;9.210;2022-10-16T13:41:02;3.33;;;1.60;;
6414;SDS011;3240;48.790;9.210;2022-10-16T13:43:32;4.63;;;1.53;;
6414;SDS011;3240;48.790;9.210;2022-10-16T13:46:02;1.73;;;1.40;;
6414;SDS011;3240;48.790;9.210;2022-10-16T13:48:29;2.00;;;1.80;;
6414;SDS011;3240;48.790;9.210;2022-10-16T13:51:03;4.70;;;1.70;;
6414;SDS011;3240;48.790;9.210;2022-10-16T13:53:31;3.00;;;1.57;;
6414;SDS011;3240;48.790;9.210;2022-10-16T13:55:58;2.80;;;1.60;;
6414;SDS011;3240;48.790;9.210;2022-10-16T13:58:27;3.33;;;1.60;;
6414;SDS011;3240;48.790;9.210;2022-10-16T14:00:56;1.97;;;1.40;;
6414;SDS011;3240;48.790;9.210;2022-10-16T14:03:24;1.93;;;1.43;;
6414;SDS011;3240;48.790;9.210;2022-10-16T14:05:53;3.53;;;1.67;;
6414;SDS011;3240;48.790;9.210;2022-10-16T14:08:20;1.90;;;1.67;;
6414;SDS011;3240;48.790;9.210;2022-10-16T14:10:49;1.80;;;1.63;;
6414;SDS011;3240;48.790;9.210;2022-10-16T14:13:18;1.83;;;1.40;;
6414;SDS011;3240;48.790;9.210;2022-10-16T14:15:46;4.20;;;1.50;;
6414;SDS011;3240;48.790;9.210;2022-10-16T14:18:16;2.80;;;1.37;;
6414;SDS011;3240;48.790;9.210;2022-10-16T14:20:42;2.67;;;1.77;;
6414;SDS011;3240;48.790;9.210;2022-10-16T14:25:44;2.00;;;1.53;;
6414;SDS011;3240;48.790;9.210;2022-10-16T14:28:17;3.10;;;1.57;;
6414;SDS011;3240;48.790;9.210;2022-10-16T14:30:57;2.23;;;1.77;;
6414;SDS011;3240;48.790;9.210;2022-10-16T14:33:31;2.60;;;1.70;;
6414;SDS011;3240;48.790;9.210;2022-10-16T14:36:04;3.20;;;1.87;;
6414;SDS011;3240;48.790;9.210;2022-10-16T14:38:32;2.10;;;1.67;;
6414;SDS011;3240;48.790;9.210;2022-10-16T14:41:00;3.00;;;1.50;;
6414;SDS011;3240;48.790;9.210;2022-10-16T14:43:31;7.03;;;1.60;;
6414;SDS011;3240;48.790;9.210;2022-10-16T14:45:56;3.30;;;1.60;;
6414;SDS011;3240;48.790;9.210;2022-10-16T14:48:24;2.58;;;1.40;;
6414;SDS011;3240;48.790;9.210;2022-10-16T14:50:53;2.87;;;2.00;;
6414;SDS011;3240;48.790;9.210;2022-10-16T14:53:21;4.43;;;1.90;;
6414;SDS011;3240;48.790;9.210;2022-10-16T14:55:49;2.23;;;1.83;;
6414;SDS011;3240;48.790;9.210;2022-10-16T14:58:19;5.07;;;1.47;;
6414;SDS011;3240;48.790;9.210;2022-10-16T15:00:46;2.60;;;1.27;;
6414;SDS011;3240;48.790;9.210;2022-10-16T15:03:15;2.23;;;1.90;;
6414;SDS011;3240;48.790;9.210;2022-10-16T15:05:43;4.00;;;1.80;;
6414;SDS011;3240;48.790;9.210;2022-10-16T15:08:11;4.43;;;2.03;;
6414;SDS011;3240;48.790;9.210;2022-10-16T15:10:41;4.27;;;1.63;;
6414;SDS011;3240;48.790;9.210;2022-10-16T15:13:11;3.63;;;1.57;;
6414;SDS011;3240;48.790;9.210;2022-10-16T15:15:41;3.47;;;1.97;;
6414;SDS011;3240;48.790;9.210;2022-10-16T15:18:08;4.67;;;2.10;;
6414;SDS011;3240;48.790;9.210;2022-10-16T15:20:37;3.97;;;2.20;;
6414;SDS011;3240;48.790;9.210;2022-10-16T15:23:06;4.13;;;2.50;;
6414;SDS011;3240;48.790;9.210;2022-10-16T15:25:37;3.50;;;2.27;;
6414;SDS011;3240;48.790;9.210;2022-10-16T15:28:04;3.50;;;1.90;;
6414;SDS011;3240;48.790;9.210;2022-10-16T15:30:32;5.90;;;2.80;;
6414;SDS011;3240;48.790;9.210;2022-10-16T15:33:01;3.47;;;3.17;;
6414;SDS011;3240;48.790;9.210;2022-10-16T15:35:29;5.00;;;2.60;;
6414;SDS011;3240;48.790;9.210;2022-10-16T15:37:57;7.30;;;2.30;;
6414;SDS011;3240;48.790;9.210;2022-10-16T15:40:26;2.90;;;2.27;;
6414;SDS011;3240;48.790;9.210;2022-10-16T15:42:54;4.27;;;2.43;;
6414;SDS011;3240;48.790;9.210;2022-10-16T15:45:22;4.13;;;2.47;;
6414;SDS011;3240;48.790;9.210;2022-10-16T15:47:51;3.97;;;2.40;;
6414;SDS011;3240;48.790;9.210;2022-10-16T15:50:19;5.63;;;2.37;;
6414;SDS011;3240;48.790;9.210;2022-10-16T15:52:47;2.80;;;2.53;;
6414;SDS011;3240;48.790;9.210;2022-10-16T15:55:16;3.23;;;2.57;;
6414;SDS011;3240;48.790;9.210;2022-10-16T15:57:44;5.17;;;2.47;;
6414;SDS011;3240;48.790;9.210;2022-10-16T16:00:14;5.97;;;2.63;;
6414;SDS011;3240;48.790;9.210;2022-10-16T16:02:42;4.73;;;2.50;;
6414;SDS011;3240;48.790;9.210;2022-10-16T16:05:10;4.53;;;2.57;;
6414;SDS011;3240;48.790;9.210;2022-10-16T16:07:38;7.57;;;3.43;;
6414;SDS011;3240;48.790;9.210;2022-10-16T16:10:07;5.77;;;3.03;;